sensor_id;sensor_type;location;lat;lon;timestamp;pressure;altitude;pressure_sealevel;temperature
15626;BMP180;7912;51.376;6.126;2024-03-22T00:02:08;101858.00;;;15.80
15626;BMP180;7912;51.376;6.126;2024-03-22T00:04:37;101841.00;;;15.80
15626;BMP180;7912;51.376;6.126;2024-03-22T00:07:04;101843.00;;;15.80
15626;BMP180;7912;51.376;6.126;2024-03-22T00:09:31;101830.00;;;15.80
15626;BMP180;7912;51.376;6.126;2024-03-22T00:11:57;101840.00;;;15.80
15626;BMP180;7912;51.376;6.126;2024-03-22T00:14:23;101836.00;;;15.80
15626;BMP180;7912;51.376;6.126;2024-03-22T00:16:50;101838.00;;;15.80
15626;BMP180;7912;51.376;6.126;2024-03-22T00:19:16;101826.00;;;15.80
15626;BMP180;7912;51.376;6.126;2024-03-22T00:21:43;101818.00;;;15.80
15626;BMP180;7912;51.376;6.126;2024-03-22T00:24:09;101821.00;;;15.80
15626;BMP180;7912;51.376;6.126;2024-03-22T00:26:35;101816.00;;;15.80
15626;BMP180;7912;51.376;6.126;2024-03-22T00:29:01;101816.00;;;15.80
15626;BMP180;7912;51.376;6.126;2024-03-22T00:31:27;101820.00;;;15.80
15626;BMP180;7912;51.376;6.126;2024-03-22T00:34:12;101801.00;;;15.70
15626;BMP180;7912;51.376;6.126;2024-03-22T00:36:39;101809.00;;;15.70
15626;BMP180;7912;51.376;6.126;2024-03-22T00:39:05;101797.00;;;15.70
15626;BMP180;7912;51.376;6.126;2024-03-22T00:41:31;101802.00;;;15.70
15626;BMP180;7912;51.376;6.126;2024-03-22T00:43:58;101798.00;;;15.70
15626;BMP180;7912;51.376;6.126;2024-03-22T00:46:24;101797.00;;;15.70
15626;BMP180;7912;51.376;6.126;2024-03-22T00:48:50;101805.00;;;15.80
15626;BMP180;7912;51.376;6.126;2024-03-22T00:51:16;101798.00;;;15.80
15626;BMP180;7912;51.376;6.126;2024-03-22T00:53:42;101793.00;;;15.80
15626;BMP180;7912;51.376;6.126;2024-03-22T00:56:09;101790.00;;;15.80
15626;BMP180;7912;51.376;6.126;2024-03-22T00:58:35;101784.00;;;15.80
15626;BMP180;7912;51.376;6.126;2024-03-22T01:01:01;101785.00;;;15.90
15626;BMP180;7912;51.376;6.126;2024-03-22T01:03:27;101784.00;;;15.80
15626;BMP180;7912;51.376;6.126;2024-03-22T01:05:53;101784.00;;;15.90
15626;BMP180;7912;51.376;6.126;2024-03-22T01:08:19;101779.00;;;15.90
15626;BMP180;7912;51.376;6.126;2024-03-22T01:10:45;101760.00;;;15.90
15626;BMP180;7912;51.376;6.126;2024-03-22T01:13:11;101768.00;;;15.80
15626;BMP180;7912;51.376;6.126;2024-03-22T01:15:37;101761.00;;;15.90
15626;BMP180;7912;51.376;6.126;2024-03-22T01:18:04;101759.00;;;15.90
15626;BMP180;7912;51.376;6.126;2024-03-22T01:20:30;101748.00;;;15.90
15626;BMP180;7912;51.376;6.126;2024-03-22T01:22:56;101746.00;;;15.80
15626;BMP180;7912;51.376;6.126;2024-03-22T01:25:23;101744.00;;;15.80
15626;BMP180;7912;51.376;6.126;2024-03-22T01:27:49;101738.00;;;15.90
15626;BMP180;7912;51.376;6.126;2024-03-22T01:30:15;101729.00;;;15.90
15626;BMP180;7912;51.376;6.126;2024-03-22T01:32:41;101732.00;;;15.90
15626;BMP180;7912;51.376;6.126;2024-03-22T01:35:08;101736.00;;;15.90
15626;BMP180;7912;51.376;6.126;2024-03-22T01:37:34;101723.00;;;15.90
15626;BMP180;7912;51.376;6.126;2024-03-22T01:40:02;101729.00;;;15.90
15626;BMP180;7912;51.376;6.126;2024-03-22T01:42:28;101723.00;;;15.90
15626;BMP180;7912;51.376;6.126;2024-03-22T01:44:54;101706.00;;;15.90
15626;BMP180;7912;51.376;6.126;2024-03-22T01:47:21;101707.00;;;15.90
15626;BMP180;7912;51.376;6.126;2024-03-22T01:49:49;101694.00;;;15.90
15626;BMP180;7912;51.376;6.126;2024-03-22T01:52:16;101695.00;;;16.00
15626;BMP180;7912;51.376;6.126;2024-03-22T01:54:42;101697.00;;;16.00
15626;BMP180;7912;51.376;6.126;2024-03-22T01:57:09;101701.00;;;16.00
15626;BMP180;7912;51.376;6.126;2024-03-22T01:59:35;101706.00;;;16.00
15626;BMP180;7912;51.376;6.126;2024-03-22T02:02:02;101708.00;;;16.00
15626;BMP180;7912;51.376;6.126;2024-03-22T02:04:28;101706.00;;;16.00
15626;BMP180;7912;51.376;6.126;2024-03-22T02:06:55;101704.00;;;16.00
15626;BMP180;7912;51.376;6.126;2024-03-22T02:09:21;101697.00;;;16.00
15626;BMP180;7912;51.376;6.126;2024-03-22T02:11:48;101694.00;;;16.00
15626;BMP180;7912;51.376;6.126;2024-03-22T02:14:14;101691.00;;;16.10
15626;BMP180;7912;51.376;6.126;2024-03-22T02:16:40;101681.00;;;16.10
15626;BMP180;7912;51.376;6.126;2024-03-22T02:19:08;101675.00;;;16.10
15626;BMP180;7912;51.376;6.126;2024-03-22T02:21:35;101671.00;;;16.10
15626;BMP180;7912;51.376;6.126;2024-03-22T02:24:01;101676.00;;;16.10
15626;BMP180;7912;51.376;6.126;2024-03-22T02:26:27;101661.00;;;16.10
15626;BMP180;7912;51.376;6.126;2024-03-22T02:28:53;101661.00;;;16.10
15626;BMP180;7912;51.376;6.126;2024-03-22T02:31:19;101664.00;;;16.10
15626;BMP180;7912;51.376;6.126;2024-03-22T02:33:46;101653.00;;;16.10
15626;BMP180;7912;51.376;6.126;2024-03-22T02:36:12;101655.00;;;16.10
15626;BMP180;7912;51.376;6.126;2024-03-22T02:38:39;101653.00;;;16.10
15626;BMP180;7912;51.376;6.126;2024-03-22T02:41:05;101632.00;;;16.10
15626;BMP180;7912;51.376;6.126;2024-03-22T02:43:31;101648.00;;;16.10
15626;BMP180;7912;51.376;6.126;2024-03-22T02:45:57;101646.00;;;16.10
15626;BMP180;7912;51.376;6.126;2024-03-22T02:48:23;101648.00;;;16.10
15626;BMP180;7912;51.376;6.126;2024-03-22T02:50:55;101649.00;;;16.10
15626;BMP180;7912;51.376;6.126;2024-03-22T02:53:21;101636.00;;;16.10
15626;BMP180;7912;51.376;6.126;2024-03-22T02:55:47;101631.00;;;16.10
15626;BMP180;7912;51.376;6.126;2024-03-22T02:58:13;101636.00;;;16.00
15626;BMP180;7912;51.376;6.126;2024-03-22T03:00:40;101622.00;;;16.00
15626;BMP180;7912;51.376;6.126;2024-03-22T03:03:06;101620.00;;;16.00
15626;BMP180;7912;51.376;6.126;2024-03-22T03:05:32;101618.00;;;15.90
15626;BMP180;7912;51.376;6.126;2024-03-22T03:07:59;101617.00;;;15.90
15626;BMP180;7912;51.376;6.126;2024-03-22T03:10:26;101622.00;;;15.90
15626;BMP180;7912;51.376;6.126;2024-03-22T03:12:55;101615.00;;;15.90
15626;BMP180;7912;51.376;6.126;2024-03-22T03:15:21;101615.00;;;15.80
15626;BMP180;7912;51.376;6.126;2024-03-22T03:17:47;101612.00;;;15.80
15626;BMP180;7912;51.376;6.126;2024-03-22T03:20:14;101613.00;;;15.80
15626;BMP180;7912;51.376;6.126;2024-03-22T03:22:41;101600.00;;;15.80
15626;BMP180;7912;51.376;6.126;2024-03-22T03:25:07;101602.00;;;15.80
15626;BMP180;7912;51.376;6.126;2024-03-22T03:27:34;101590.00;;;15.70
15626;BMP180;7912;51.376;6.126;2024-03-22T03:30:01;101586.00;;;15.70
15626;BMP180;7912;51.376;6.126;2024-03-22T03:32:28;101586.00;;;15.70
15626;BMP180;7912;51.376;6.126;2024-03-22T03:34:54;101573.00;;;15.70
15626;BMP180;7912;51.376;6.126;2024-03-22T03:37:21;101570.00;;;15.70
15626;BMP180;7912;51.376;6.126;2024-03-22T03:39:47;101569.00;;;15.70
15626;BMP180;7912;51.376;6.126;2024-03-22T03:42:13;101549.00;;;15.70
15626;BMP180;7912;51.376;6.126;2024-03-22T03:44:39;101567.00;;;15.70
15626;BMP180;7912;51.376;6.126;2024-03-22T03:47:08;101554.00;;;15.70
15626;BMP180;7912;51.376;6.126;2024-03-22T03:49:34;101552.00;;;15.60
15626;BMP180;7912;51.376;6.126;2024-03-22T03:52:01;101546.00;;;15.70
15626;BMP180;7912;51.376;6.126;2024-03-22T03:54:27;101550.00;;;15.70
15626;BMP180;7912;51.376;6.126;2024-03-22T03:56:53;101549.00;;;15.60
15626;BMP180;7912;51.376;6.126;2024-03-22T03:59:20;101550.00;;;15.60
15626;BMP180;7912;51.376;6.126;2024-03-22T04:01:46;101544.00;;;15.70
15626;BMP180;7912;51.376;6.126;2024-03-22T04:04:12;101553.00;;;15.70
15626;BMP180;7912;51.376;6.126;2024-03-22T04:06:39;101537.00;;;15.70
15626;BMP180;7912;51.376;6.126;2024-03-22T04:09:05;101540.00;;;15.70
15626;BMP180;7912;51.376;6.126;2024-03-22T04:11:31;101529.00;;;15.70
15626;BMP180;7912;51.376;6.126;2024-03-22T04:13:57;101518.00;;;15.70
15626;BMP180;7912;51.376;6.126;2024-03-22T04:16:23;101516.00;;;15.70
15626;BMP180;7912;51.376;6.126;2024-03-22T04:18:50;101515.00;;;15.80
15626;BMP180;7912;51.376;6.126;2024-03-22T04:21:16;101519.00;;;15.70
15626;BMP180;7912;51.376;6.126;2024-03-22T04:23:42;101514.00;;;15.70
15626;BMP180;7912;51.376;6.126;2024-03-22T04:26:08;101504.00;;;15.70
15626;BMP180;7912;51.376;6.126;2024-03-22T04:28:35;101508.00;;;15.70
15626;BMP180;7912;51.376;6.126;2024-03-22T04:31:04;101514.00;;;15.70
15626;BMP180;7912;51.376;6.126;2024-03-22T04:33:32;101508.00;;;15.70
15626;BMP180;7912;51.376;6.126;2024-03-22T04:35:59;101508.00;;;15.70
15626;BMP180;7912;51.376;6.126;2024-03-22T04:38:27;101509.00;;;15.70
15626;BMP180;7912;51.376;6.126;2024-03-22T04:40:55;101509.00;;;15.70
15626;BMP180;7912;51.376;6.126;2024-03-22T04:43:23;101506.00;;;15.70
15626;BMP180;7912;51.376;6.126;2024-03-22T04:45:51;101502.00;;;15.70
15626;BMP180;7912;51.376;6.126;2024-03-22T04:48:20;101501.00;;;15.70
15626;BMP180;7912;51.376;6.126;2024-03-22T04:50:48;101504.00;;;15.70
15626;BMP180;7912;51.376;6.126;2024-03-22T04:53:17;101505.00;;;15.70
15626;BMP180;7912;51.376;6.126;2024-03-22T04:55:44;101507.00;;;15.80
15626;BMP180;7912;51.376;6.126;2024-03-22T04:58:13;101505.00;;;15.80
15626;BMP180;7912;51.376;6.126;2024-03-22T05:00:42;101494.00;;;15.70
15626;BMP180;7912;51.376;6.126;2024-03-22T05:03:08;101494.00;;;15.70
15626;BMP180;7912;51.376;6.126;2024-03-22T05:05:34;101497.00;;;15.70
15626;BMP180;7912;51.376;6.126;2024-03-22T05:08:01;101492.00;;;15.70
15626;BMP180;7912;51.376;6.126;2024-03-22T05:10:29;101491.00;;;15.70
15626;BMP180;7912;51.376;6.126;2024-03-22T05:12:59;101498.00;;;15.70
15626;BMP180;7912;51.376;6.126;2024-03-22T05:15:26;101504.00;;;15.70
15626;BMP180;7912;51.376;6.126;2024-03-22T05:17:53;101508.00;;;15.70
15626;BMP180;7912;51.376;6.126;2024-03-22T05:20:20;101503.00;;;15.70
15626;BMP180;7912;51.376;6.126;2024-03-22T05:22:48;101500.00;;;15.70
15626;BMP180;7912;51.376;6.126;2024-03-22T05:25:14;101495.00;;;15.70
15626;BMP180;7912;51.376;6.126;2024-03-22T05:27:45;101507.00;;;15.70
15626;BMP180;7912;51.376;6.126;2024-03-22T05:30:12;101507.00;;;15.70
15626;BMP180;7912;51.376;6.126;2024-03-22T05:32:41;101478.00;;;15.70
15626;BMP180;7912;51.376;6.126;2024-03-22T05:35:08;101496.00;;;15.70
15626;BMP180;7912;51.376;6.126;2024-03-22T05:37:35;101488.00;;;15.70
15626;BMP180;7912;51.376;6.126;2024-03-22T05:40:02;101480.00;;;15.70
15626;BMP180;7912;51.376;6.126;2024-03-22T05:42:30;101476.00;;;15.70
15626;BMP180;7912;51.376;6.126;2024-03-22T05:44:56;101473.00;;;15.70
15626;BMP180;7912;51.376;6.126;2024-03-22T05:47:23;101473.00;;;15.70
15626;BMP180;7912;51.376;6.126;2024-03-22T05:49:49;101482.00;;;15.80
15626;BMP180;7912;51.376;6.126;2024-03-22T05:52:15;101479.00;;;15.80
15626;BMP180;7912;51.376;6.126;2024-03-22T05:54:41;101481.00;;;15.80
15626;BMP180;7912;51.376;6.126;2024-03-22T05:57:07;101479.00;;;15.80
15626;BMP180;7912;51.376;6.126;2024-03-22T05:59:34;101475.00;;;15.80
15626;BMP180;7912;51.376;6.126;2024-03-22T06:02:00;101474.00;;;15.80
15626;BMP180;7912;51.376;6.126;2024-03-22T06:04:28;101472.00;;;15.80
15626;BMP180;7912;51.376;6.126;2024-03-22T06:07:13;101474.00;;;15.80
15626;BMP180;7912;51.376;6.126;2024-03-22T06:09:40;101474.00;;;15.80
15626;BMP180;7912;51.376;6.126;2024-03-22T06:12:13;101470.00;;;15.80
15626;BMP180;7912;51.376;6.126;2024-03-22T06:14:41;101474.00;;;15.80
15626;BMP180;7912;51.376;6.126;2024-03-22T06:17:08;101462.00;;;15.80
15626;BMP180;7912;51.376;6.126;2024-03-22T06:19:36;101471.00;;;15.80
15626;BMP180;7912;51.376;6.126;2024-03-22T06:22:02;101463.00;;;15.80
15626;BMP180;7912;51.376;6.126;2024-03-22T06:24:29;101457.00;;;15.80
15626;BMP180;7912;51.376;6.126;2024-03-22T06:26:55;101448.00;;;15.80
15626;BMP180;7912;51.376;6.126;2024-03-22T06:29:21;101456.00;;;15.80
15626;BMP180;7912;51.376;6.126;2024-03-22T06:31:48;101459.00;;;15.90
15626;BMP180;7912;51.376;6.126;2024-03-22T06:34:16;101444.00;;;16.00
15626;BMP180;7912;51.376;6.126;2024-03-22T06:36:42;101450.00;;;16.00
15626;BMP180;7912;51.376;6.126;2024-03-22T06:39:08;101447.00;;;16.10
15626;BMP180;7912;51.376;6.126;2024-03-22T06:41:36;101448.00;;;16.20
15626;BMP180;7912;51.376;6.126;2024-03-22T06:44:03;101445.00;;;16.20
15626;BMP180;7912;51.376;6.126;2024-03-22T06:46:30;101444.00;;;16.30
15626;BMP180;7912;51.376;6.126;2024-03-22T06:48:58;101453.00;;;16.40
15626;BMP180;7912;51.376;6.126;2024-03-22T06:51:24;101457.00;;;16.40
15626;BMP180;7912;51.376;6.126;2024-03-22T06:53:50;101458.00;;;16.50
15626;BMP180;7912;51.376;6.126;2024-03-22T06:56:17;101458.00;;;16.60
15626;BMP180;7912;51.376;6.126;2024-03-22T06:58:44;101453.00;;;16.60
15626;BMP180;7912;51.376;6.126;2024-03-22T07:01:10;101454.00;;;16.70
15626;BMP180;7912;51.376;6.126;2024-03-22T07:03:36;101450.00;;;16.70
15626;BMP180;7912;51.376;6.126;2024-03-22T07:06:03;101447.00;;;16.80
15626;BMP180;7912;51.376;6.126;2024-03-22T07:08:30;101449.00;;;16.80
15626;BMP180;7912;51.376;6.126;2024-03-22T07:10:56;101443.00;;;16.90
15626;BMP180;7912;51.376;6.126;2024-03-22T07:13:22;101437.00;;;16.90
15626;BMP180;7912;51.376;6.126;2024-03-22T07:15:49;101437.00;;;17.00
15626;BMP180;7912;51.376;6.126;2024-03-22T07:18:15;101440.00;;;17.00
15626;BMP180;7912;51.376;6.126;2024-03-22T07:20:42;101432.00;;;17.10
15626;BMP180;7912;51.376;6.126;2024-03-22T07:23:09;101434.00;;;17.20
15626;BMP180;7912;51.376;6.126;2024-03-22T07:25:35;101438.00;;;17.30
15626;BMP180;7912;51.376;6.126;2024-03-22T07:28:01;101429.00;;;17.30
15626;BMP180;7912;51.376;6.126;2024-03-22T07:30:27;101428.00;;;17.40
15626;BMP180;7912;51.376;6.126;2024-03-22T07:32:53;101439.00;;;17.50
15626;BMP180;7912;51.376;6.126;2024-03-22T07:35:20;101426.00;;;17.60
15626;BMP180;7912;51.376;6.126;2024-03-22T07:38:24;101441.00;;;17.60
15626;BMP180;7912;51.376;6.126;2024-03-22T07:40:50;101434.00;;;17.60
15626;BMP180;7912;51.376;6.126;2024-03-22T07:43:16;101429.00;;;17.60
15626;BMP180;7912;51.376;6.126;2024-03-22T07:45:42;101439.00;;;17.60
15626;BMP180;7912;51.376;6.126;2024-03-22T07:48:08;101445.00;;;17.60
15626;BMP180;7912;51.376;6.126;2024-03-22T07:50:36;101439.00;;;17.60
15626;BMP180;7912;51.376;6.126;2024-03-22T07:53:02;101434.00;;;17.60
15626;BMP180;7912;51.376;6.126;2024-03-22T07:55:31;101446.00;;;17.60
15626;BMP180;7912;51.376;6.126;2024-03-22T07:57:57;101443.00;;;17.60
15626;BMP180;7912;51.376;6.126;2024-03-22T08:00:24;101447.00;;;17.60
15626;BMP180;7912;51.376;6.126;2024-03-22T08:02:53;101439.00;;;17.60
15626;BMP180;7912;51.376;6.126;2024-03-22T08:05:38;101444.00;;;17.70
15626;BMP180;7912;51.376;6.126;2024-03-22T08:08:05;101440.00;;;17.70
15626;BMP180;7912;51.376;6.126;2024-03-22T08:10:31;101432.00;;;17.80
15626;BMP180;7912;51.376;6.126;2024-03-22T08:12:58;101433.00;;;18.00
15626;BMP180;7912;51.376;6.126;2024-03-22T08:15:24;101433.00;;;18.10
15626;BMP180;7912;51.376;6.126;2024-03-22T08:17:51;101424.00;;;18.10
15626;BMP180;7912;51.376;6.126;2024-03-22T08:20:17;101437.00;;;18.20
15626;BMP180;7912;51.376;6.126;2024-03-22T08:22:43;101438.00;;;18.20
15626;BMP180;7912;51.376;6.126;2024-03-22T08:25:09;101444.00;;;18.30
15626;BMP180;7912;51.376;6.126;2024-03-22T08:27:36;101431.00;;;18.40
15626;BMP180;7912;51.376;6.126;2024-03-22T08:30:02;101441.00;;;18.40
15626;BMP180;7912;51.376;6.126;2024-03-22T08:32:29;101438.00;;;18.40
15626;BMP180;7912;51.376;6.126;2024-03-22T08:34:56;101427.00;;;18.40
15626;BMP180;7912;51.376;6.126;2024-03-22T08:37:22;101436.00;;;18.40
15626;BMP180;7912;51.376;6.126;2024-03-22T08:39:48;101427.00;;;18.40
15626;BMP180;7912;51.376;6.126;2024-03-22T08:42:14;101428.00;;;18.40
15626;BMP180;7912;51.376;6.126;2024-03-22T08:44:40;101418.00;;;18.50
15626;BMP180;7912;51.376;6.126;2024-03-22T08:47:07;101421.00;;;18.60
15626;BMP180;7912;51.376;6.126;2024-03-22T08:49:33;101408.00;;;18.80
15626;BMP180;7912;51.376;6.126;2024-03-22T08:52:02;101405.00;;;19.00
15626;BMP180;7912;51.376;6.126;2024-03-22T08:54:28;101416.00;;;19.20
15626;BMP180;7912;51.376;6.126;2024-03-22T08:56:54;101403.00;;;19.40
15626;BMP180;7912;51.376;6.126;2024-03-22T08:59:20;101407.00;;;19.60
15626;BMP180;7912;51.376;6.126;2024-03-22T09:01:47;101406.00;;;19.70
15626;BMP180;7912;51.376;6.126;2024-03-22T09:04:14;101412.00;;;19.70
15626;BMP180;7912;51.376;6.126;2024-03-22T09:06:41;101404.00;;;19.70
15626;BMP180;7912;51.376;6.126;2024-03-22T09:09:07;101408.00;;;19.70
15626;BMP180;7912;51.376;6.126;2024-03-22T09:11:35;101411.00;;;19.70
15626;BMP180;7912;51.376;6.126;2024-03-22T09:14:01;101404.00;;;19.60
15626;BMP180;7912;51.376;6.126;2024-03-22T09:16:27;101407.00;;;19.60
15626;BMP180;7912;51.376;6.126;2024-03-22T09:18:54;101405.00;;;19.60
15626;BMP180;7912;51.376;6.126;2024-03-22T09:21:20;101407.00;;;19.60
15626;BMP180;7912;51.376;6.126;2024-03-22T09:23:46;101405.00;;;19.60
15626;BMP180;7912;51.376;6.126;2024-03-22T09:26:12;101406.00;;;19.50
15626;BMP180;7912;51.376;6.126;2024-03-22T09:28:41;101409.00;;;19.50
15626;BMP180;7912;51.376;6.126;2024-03-22T09:31:11;101399.00;;;19.50
15626;BMP180;7912;51.376;6.126;2024-03-22T09:33:37;101412.00;;;19.40
15626;BMP180;7912;51.376;6.126;2024-03-22T09:36:03;101398.00;;;19.50
15626;BMP180;7912;51.376;6.126;2024-03-22T09:38:30;101398.00;;;19.50
15626;BMP180;7912;51.376;6.126;2024-03-22T09:40:56;101396.00;;;19.50
15626;BMP180;7912;51.376;6.126;2024-03-22T09:43:23;101381.00;;;19.50
15626;BMP180;7912;51.376;6.126;2024-03-22T09:45:50;101390.00;;;19.50
15626;BMP180;7912;51.376;6.126;2024-03-22T09:48:18;101382.00;;;19.50
15626;BMP180;7912;51.376;6.126;2024-03-22T09:50:48;101382.00;;;19.60
15626;BMP180;7912;51.376;6.126;2024-03-22T09:53:20;101384.00;;;19.60
15626;BMP180;7912;51.376;6.126;2024-03-22T09:55:49;101391.00;;;19.70
15626;BMP180;7912;51.376;6.126;2024-03-22T09:58:16;101378.00;;;19.70
15626;BMP180;7912;51.376;6.126;2024-03-22T10:00:46;101384.00;;;19.60
15626;BMP180;7912;51.376;6.126;2024-03-22T10:03:12;101380.00;;;19.60
15626;BMP180;7912;51.376;6.126;2024-03-22T10:05:39;101376.00;;;19.70
15626;BMP180;7912;51.376;6.126;2024-03-22T10:08:05;101357.00;;;19.70
15626;BMP180;7912;51.376;6.126;2024-03-22T10:10:32;101371.00;;;19.70
15626;BMP180;7912;51.376;6.126;2024-03-22T10:13:04;101374.00;;;19.70
15626;BMP180;7912;51.376;6.126;2024-03-22T10:15:33;101373.00;;;19.70
15626;BMP180;7912;51.376;6.126;2024-03-22T10:17:59;101371.00;;;19.70
15626;BMP180;7912;51.376;6.126;2024-03-22T10:20:25;101362.00;;;19.80
15626;BMP180;7912;51.376;6.126;2024-03-22T10:22:59;101359.00;;;19.80
15626;BMP180;7912;51.376;6.126;2024-03-22T10:25:26;101349.00;;;19.90
15626;BMP180;7912;51.376;6.126;2024-03-22T10:27:56;101355.00;;;19.90
15626;BMP180;7912;51.376;6.126;2024-03-22T10:30:24;101351.00;;;19.90
15626;BMP180;7912;51.376;6.126;2024-03-22T10:32:51;101333.00;;;20.00
15626;BMP180;7912;51.376;6.126;2024-03-22T10:35:18;101348.00;;;20.00
15626;BMP180;7912;51.376;6.126;2024-03-22T10:37:44;101349.00;;;20.00
15626;BMP180;7912;51.376;6.126;2024-03-22T10:40:11;101361.00;;;20.10
15626;BMP180;7912;51.376;6.126;2024-03-22T10:42:40;101344.00;;;20.20
15626;BMP180;7912;51.376;6.126;2024-03-22T10:45:09;101340.00;;;20.20
15626;BMP180;7912;51.376;6.126;2024-03-22T10:47:37;101347.00;;;20.10
15626;BMP180;7912;51.376;6.126;2024-03-22T10:50:08;101345.00;;;20.00
15626;BMP180;7912;51.376;6.126;2024-03-22T10:52:51;101368.00;;;20.00
15626;BMP180;7912;51.376;6.126;2024-03-22T10:55:33;101351.00;;;19.80
15626;BMP180;7912;51.376;6.126;2024-03-22T10:58:00;101343.00;;;19.60
15626;BMP180;7912;51.376;6.126;2024-03-22T11:00:34;101340.00;;;19.50
15626;BMP180;7912;51.376;6.126;2024-03-22T11:03:04;101356.00;;;19.40
15626;BMP180;7912;51.376;6.126;2024-03-22T11:05:30;101352.00;;;19.30
15626;BMP180;7912;51.376;6.126;2024-03-22T11:08:01;101362.00;;;19.20
15626;BMP180;7912;51.376;6.126;2024-03-22T11:10:33;101335.00;;;19.10
15626;BMP180;7912;51.376;6.126;2024-03-22T11:13:04;101352.00;;;19.00
15626;BMP180;7912;51.376;6.126;2024-03-22T11:15:34;101357.00;;;18.80
15626;BMP180;7912;51.376;6.126;2024-03-22T11:18:01;101360.00;;;18.70
15626;BMP180;7912;51.376;6.126;2024-03-22T11:20:28;101359.00;;;18.60
15626;BMP180;7912;51.376;6.126;2024-03-22T11:22:56;101360.00;;;18.50
15626;BMP180;7912;51.376;6.126;2024-03-22T11:25:23;101341.00;;;18.40
15626;BMP180;7912;51.376;6.126;2024-03-22T11:27:49;101342.00;;;18.40
15626;BMP180;7912;51.376;6.126;2024-03-22T11:30:15;101344.00;;;18.30
15626;BMP180;7912;51.376;6.126;2024-03-22T11:32:43;101347.00;;;18.30
15626;BMP180;7912;51.376;6.126;2024-03-22T11:35:13;101346.00;;;18.20
15626;BMP180;7912;51.376;6.126;2024-03-22T11:37:40;101356.00;;;18.10
15626;BMP180;7912;51.376;6.126;2024-03-22T11:40:09;101346.00;;;18.00
15626;BMP180;7912;51.376;6.126;2024-03-22T11:42:41;101356.00;;;18.00
15626;BMP180;7912;51.376;6.126;2024-03-22T11:45:16;101348.00;;;18.00
15626;BMP180;7912;51.376;6.126;2024-03-22T11:47:45;101349.00;;;18.00
15626;BMP180;7912;51.376;6.126;2024-03-22T11:50:15;101361.00;;;17.90
15626;BMP180;7912;51.376;6.126;2024-03-22T11:52:42;101349.00;;;17.80
15626;BMP180;7912;51.376;6.126;2024-03-22T11:55:11;101357.00;;;17.80
15626;BMP180;7912;51.376;6.126;2024-03-22T11:57:37;101338.00;;;17.70
15626;BMP180;7912;51.376;6.126;2024-03-22T12:00:05;101343.00;;;17.60
15626;BMP180;7912;51.376;6.126;2024-03-22T12:02:38;101343.00;;;17.50
15626;BMP180;7912;51.376;6.126;2024-03-22T12:05:05;101348.00;;;17.50
15626;BMP180;7912;51.376;6.126;2024-03-22T12:07:32;101347.00;;;17.50
15626;BMP180;7912;51.376;6.126;2024-03-22T12:09:59;101338.00;;;17.50
15626;BMP180;7912;51.376;6.126;2024-03-22T12:12:25;101346.00;;;17.40
15626;BMP180;7912;51.376;6.126;2024-03-22T12:14:53;101336.00;;;17.30
15626;BMP180;7912;51.376;6.126;2024-03-22T12:17:19;101329.00;;;17.20
15626;BMP180;7912;51.376;6.126;2024-03-22T12:19:45;101336.00;;;17.10
15626;BMP180;7912;51.376;6.126;2024-03-22T12:22:12;101326.00;;;17.00
15626;BMP180;7912;51.376;6.126;2024-03-22T12:24:38;101318.00;;;17.00
15626;BMP180;7912;51.376;6.126;2024-03-22T12:27:04;101310.00;;;16.90
15626;BMP180;7912;51.376;6.126;2024-03-22T12:29:35;101313.00;;;17.00
15626;BMP180;7912;51.376;6.126;2024-03-22T12:32:05;101311.00;;;16.90
15626;BMP180;7912;51.376;6.126;2024-03-22T12:34:32;101300.00;;;16.90
15626;BMP180;7912;51.376;6.126;2024-03-22T12:37:03;101298.00;;;16.90
15626;BMP180;7912;51.376;6.126;2024-03-22T12:39:29;101302.00;;;16.90
15626;BMP180;7912;51.376;6.126;2024-03-22T12:41:55;101296.00;;;16.90
15626;BMP180;7912;51.376;6.126;2024-03-22T12:44:22;101293.00;;;16.80
15626;BMP180;7912;51.376;6.126;2024-03-22T12:46:48;101289.00;;;16.90
15626;BMP180;7912;51.376;6.126;2024-03-22T12:49:17;101284.00;;;16.90
15626;BMP180;7912;51.376;6.126;2024-03-22T12:51:43;101277.00;;;16.90
15626;BMP180;7912;51.376;6.126;2024-03-22T12:54:10;101278.00;;;16.90
15626;BMP180;7912;51.376;6.126;2024-03-22T12:56:36;101267.00;;;17.00
15626;BMP180;7912;51.376;6.126;2024-03-22T12:59:05;101280.00;;;16.90
15626;BMP180;7912;51.376;6.126;2024-03-22T13:01:31;101273.00;;;17.00
15626;BMP180;7912;51.376;6.126;2024-03-22T13:04:00;101266.00;;;17.00
15626;BMP180;7912;51.376;6.126;2024-03-22T13:06:26;101264.00;;;17.00
15626;BMP180;7912;51.376;6.126;2024-03-22T13:08:53;101266.00;;;17.00
15626;BMP180;7912;51.376;6.126;2024-03-22T13:11:19;101263.00;;;17.00
15626;BMP180;7912;51.376;6.126;2024-03-22T13:13:45;101252.00;;;17.00
15626;BMP180;7912;51.376;6.126;2024-03-22T13:16:30;101249.00;;;17.10
15626;BMP180;7912;51.376;6.126;2024-03-22T13:18:59;101257.00;;;17.10
15626;BMP180;7912;51.376;6.126;2024-03-22T13:21:25;101246.00;;;17.10
15626;BMP180;7912;51.376;6.126;2024-03-22T13:23:51;101236.00;;;17.10
15626;BMP180;7912;51.376;6.126;2024-03-22T13:26:18;101232.00;;;17.10
15626;BMP180;7912;51.376;6.126;2024-03-22T13:28:44;101231.00;;;17.10
15626;BMP180;7912;51.376;6.126;2024-03-22T13:31:10;101222.00;;;17.10
15626;BMP180;7912;51.376;6.126;2024-03-22T13:33:36;101215.00;;;17.10
15626;BMP180;7912;51.376;6.126;2024-03-22T13:36:03;101215.00;;;17.10
15626;BMP180;7912;51.376;6.126;2024-03-22T13:38:31;101216.00;;;17.10
15626;BMP180;7912;51.376;6.126;2024-03-22T13:40:58;101215.00;;;17.10
15626;BMP180;7912;51.376;6.126;2024-03-22T13:43:29;101209.00;;;17.10
15626;BMP180;7912;51.376;6.126;2024-03-22T13:45:55;101199.00;;;17.10
15626;BMP180;7912;51.376;6.126;2024-03-22T13:48:25;101196.00;;;17.10
15626;BMP180;7912;51.376;6.126;2024-03-22T13:50:55;101209.00;;;17.10
15626;BMP180;7912;51.376;6.126;2024-03-22T13:53:21;101201.00;;;17.10
15626;BMP180;7912;51.376;6.126;2024-03-22T13:55:51;101204.00;;;17.00
15626;BMP180;7912;51.376;6.126;2024-03-22T13:58:20;101201.00;;;17.00
15626;BMP180;7912;51.376;6.126;2024-03-22T14:00:47;101195.00;;;17.00
15626;BMP180;7912;51.376;6.126;2024-03-22T14:03:13;101198.00;;;17.00
15626;BMP180;7912;51.376;6.126;2024-03-22T14:05:42;101196.00;;;16.90
15626;BMP180;7912;51.376;6.126;2024-03-22T14:08:08;101184.00;;;16.90
15626;BMP180;7912;51.376;6.126;2024-03-22T14:10:34;101187.00;;;16.80